Time;durP1;ratioP1;P1;durP2;ratioP2;P2;SDS_P1;SDS_P2;PMS_P1;PMS_P2;Temp;Humidity;BMP_temperature;BMP_pressure;BME280_temperature;BME280_humidity;BME280_pressure;Samples;Min_cycle;Max_cycle;Signal;HPM_P1;HPM_P2
2023/01/31 00:06:20;;;;;;;51.00;17.40;;;;;;;;;;20837302;28;20057;-59
2023/01/31 00:16:41;;;;;;;13.50;6.13;;;;;;;;;;20836090;28;20049;-60
2023/01/31 00:27:03;;;;;;;10.52;5.00;;;;;;;;;;20838826;28;20091;-59
2023/01/31 00:37:24;;;;;;;7.72;3.33;;;;;;;;;;20834830;28;20057;-58
2023/01/31 00:47:35;;;;;;;7.95;3.95;;;;;;;;;;20833449;28;20049;-59
2023/01/31 00:57:44;;;;;;;11.50;5.10;;;;;;;;;;20834222;28;20056;-60
2023/01/31 01:07:46;;;;;;;7.18;3.72;;;;;;;;;;20833650;28;20045;-58
2023/01/31 01:17:49;;;;;;;8.50;4.05;;;;;;;;;;20831622;28;20053;-59
2023/01/31 01:27:52;;;;;;;9.48;4.00;;;;;;;;;;20831110;28;20535;-59
2023/01/31 01:37:54;;;;;;;6.15;3.20;;;;;;;;;;20831889;28;20061;-59
2023/01/31 01:47:59;;;;;;;8.95;3.95;;;;;;;;;;20830660;28;20136;-58
2023/01/31 01:58:07;;;;;;;6.78;3.85;;;;;;;;;;20845373;28;20049;-60
2023/01/31 02:08:09;;;;;;;8.32;3.70;;;;;;;;;;20846183;28;20183;-57
2023/01/31 02:18:12;;;;;;;6.30;3.67;;;;;;;;;;20845242;28;20053;-58
2023/01/31 02:28:35;;;;;;;5.53;3.67;;;;;;;;;;20844712;28;20091;-58
2023/01/31 02:38:42;;;;;;;10.17;4.37;;;;;;;;;;20843619;28;20050;-59
2023/01/31 02:48:44;;;;;;;8.07;3.97;;;;;;;;;;20843352;28;20080;-58
2023/01/31 02:58:49;;;;;;;6.03;3.58;;;;;;;;;;20842501;28;20102;-59
2023/01/31 03:09:01;;;;;;;7.78;4.03;;;;;;;;;;20841907;28;20100;-58
2023/01/31 03:19:12;;;;;;;7.88;4.05;;;;;;;;;;20842149;28;20093;-57
2023/01/31 03:29:14;;;;;;;10.48;4.28;;;;;;;;;;20839948;28;20100;-58
2023/01/31 03:39:36;;;;;;;7.72;4.45;;;;;;;;;;20838961;28;20132;-59
2023/01/31 03:49:41;;;;;;;9.00;3.53;;;;;;;;;;20837780;28;20058;-58
2023/01/31 03:59:45;;;;;;;8.35;4.65;;;;;;;;;;20838707;28;20397;-59
2023/01/31 04:09:46;;;;;;;8.52;4.15;;;;;;;;;;20837870;28;20049;-60
2023/01/31 04:19:48;;;;;;;9.10;4.68;;;;;;;;;;20835888;28;20147;-58
2023/01/31 04:29:50;;;;;;;8.88;4.40;;;;;;;;;;20836435;28;20399;-59
2023/01/31 04:39:52;;;;;;;12.55;4.47;;;;;;;;;;20835380;28;20453;-58
2023/01/31 04:49:53;;;;;;;10.15;4.93;;;;;;;;;;20831980;28;20053;-57
2023/01/31 04:59:55;;;;;;;8.93;4.82;;;;;;;;;;20832018;28;20061;-59
2023/01/31 05:09:57;;;;;;;10.38;4.80;;;;;;;;;;20832262;28;20059;-60
2023/01/31 05:19:59;;;;;;;8.45;4.78;;;;;;;;;;20832920;28;20081;-59
2023/01/31 05:30:01;;;;;;;7.55;4.50;;;;;;;;;;20830881;28;20099;-60
2023/01/31 05:40:02;;;;;;;9.43;5.00;;;;;;;;;;20830486;28;20056;-59
2023/01/31 05:50:04;;;;;;;9.23;4.68;;;;;;;;;;20829894;28;20571;-59
2023/01/31 06:00:06;;;;;;;11.82;5.25;;;;;;;;;;20829863;28;20045;-58
2023/01/31 06:10:09;;;;;;;11.55;4.97;;;;;;;;;;20829254;28;20053;-59
2023/01/31 06:20:11;;;;;;;8.32;5.00;;;;;;;;;;20830367;28;20489;-59
2023/01/31 06:30:13;;;;;;;9.52;4.90;;;;;;;;;;20829990;28;20542;-60
2023/01/31 06:40:15;;;;;;;9.55;4.30;;;;;;;;;;20833745;28;20050;-59
2023/01/31 06:50:17;;;;;;;8.85;5.30;;;;;;;;;;20842915;28;20053;-59
2023/01/31 07:00:19;;;;;;;13.10;6.30;;;;;;;;;;20843451;28;20506;-60
2023/01/31 07:10:21;;;;;;;9.98;5.07;;;;;;;;;;20842548;28;20053;-59
2023/01/31 07:20:22;;;;;;;9.05;4.65;;;;;;;;;;20842528;28;20509;-59
2023/01/31 07:30:24;;;;;;;10.10;5.03;;;;;;;;;;20842013;28;20084;-60
2023/01/31 07:40:26;;;;;;;10.27;5.65;;;;;;;;;;20840419;28;20092;-58
2023/01/31 07:50:28;;;;;;;14.43;5.78;;;;;;;;;;20838272;28;20088;-59
2023/01/31 08:10:50;;;;;;;7.20;4.68;;;;;;;;;;20837821;28;20080;-57
2023/01/31 08:20:51;;;;;;;12.68;5.43;;;;;;;;;;20836106;28;20096;-58
2023/01/31 08:30:53;;;;;;;16.58;7.38;;;;;;;;;;20836954;28;20045;-60
2023/01/31 08:40:58;;;;;;;15.45;6.60;;;;;;;;;;20835426;28;20409;-60
2023/01/31 08:51:03;;;;;;;21.92;9.30;;;;;;;;;;20834374;28;20521;-60
2023/01/31 09:01:07;;;;;;;19.45;7.88;;;;;;;;;;20833580;28;20425;-58
2023/01/31 09:11:08;;;;;;;16.27;6.70;;;;;;;;;;20833547;28;20045;-60
2023/01/31 09:21:12;;;;;;;17.70;8.02;;;;;;;;;;20833184;28;20144;-61
2023/01/31 09:31:14;;;;;;;19.08;7.95;;;;;;;;;;20832508;28;20041;-59
2023/01/31 09:41:19;;;;;;;19.90;7.18;;;;;;;;;;20831442;28;20504;-58
2023/01/31 09:51:22;;;;;;;15.43;7.50;;;;;;;;;;20830034;28;20107;-57
2023/01/31 10:01:36;;;;;;;15.30;7.55;;;;;;;;;;20831024;28;20481;-57
2023/01/31 10:11:43;;;;;;;16.42;6.53;;;;;;;;;;20830639;28;20532;-58
2023/01/31 10:21:47;;;;;;;18.85;8.38;;;;;;;;;;20846256;28;20049;-60
2023/01/31 10:31:52;;;;;;;13.07;6.78;;;;;;;;;;20844391;28;20052;-58
2023/01/31 10:42:15;;;;;;;18.73;7.43;;;;;;;;;;20843945;28;20053;-59
2023/01/31 10:52:25;;;;;;;14.15;6.80;;;;;;;;;;20842447;28;20136;-60
2023/01/31 11:02:28;;;;;;;16.17;7.53;;;;;;;;;;20842330;28;20045;-60
2023/01/31 11:12:51;;;;;;;17.85;8.00;;;;;;;;;;20841191;28;20079;-59
2023/01/31 11:22:54;;;;;;;16.20;8.93;;;;;;;;;;20841073;28;20057;-60
2023/01/31 11:32:56;;;;;;;15.55;8.02;;;;;;;;;;20839589;28;20046;-59
2023/01/31 11:43:03;;;;;;;16.80;8.98;;;;;;;;;;20838254;28;20061;-58
2023/01/31 11:53:17;;;;;;;15.65;8.35;;;;;;;;;;20837260;28;20056;-59
2023/01/31 12:03:20;;;;;;;15.48;7.72;;;;;;;;;;20838064;28;20386;-59
2023/01/31 12:13:22;;;;;;;15.60;7.90;;;;;;;;;;20837556;28;20539;-59
2023/01/31 12:23:37;;;;;;;21.38;9.27;;;;;;;;;;20835059;28;20091;-59
2023/01/31 12:33:51;;;;;;;18.67;9.10;;;;;;;;;;20835880;28;20059;-58
2023/01/31 12:44:09;;;;;;;16.88;8.68;;;;;;;;;;20834660;28;20476;-59
2023/01/31 12:54:30;;;;;;;17.35;8.50;;;;;;;;;;20831650;28;20459;-58
2023/01/31 13:04:38;;;;;;;14.68;8.63;;;;;;;;;;20833364;28;20176;-58
2023/01/31 13:14:42;;;;;;;15.35;8.07;;;;;;;;;;20833266;28;20593;-60
2023/01/31 13:24:47;;;;;;;13.73;8.85;;;;;;;;;;20831065;28;20041;-59
2023/01/31 13:34:57;;;;;;;17.30;8.35;;;;;;;;;;20830673;28;20057;-61
2023/01/31 13:45:06;;;;;;;16.23;8.88;;;;;;;;;;20831785;28;20128;-60
2023/01/31 13:55:14;;;;;;;20.08;10.38;;;;;;;;;;20847270;28;20156;-60
2023/01/31 14:05:35;;;;;;;16.55;9.32;;;;;;;;;;20847807;28;20092;-60
2023/01/31 14:15:50;;;;;;;15.85;9.00;;;;;;;;;;20845664;28;20045;-60
2023/01/31 14:25:52;;;;;;;26.58;9.57;;;;;;;;;;20844625;28;20077;-58
2023/01/31 14:36:12;;;;;;;15.45;8.48;;;;;;;;;;20845452;28;20071;-60
2023/01/31 14:46:44;;;;;;;13.77;8.50;;;;;;;;;;20844268;28;20057;-59
2023/01/31 14:56:53;;;;;;;16.42;9.18;;;;;;;;;;20834245;28;20123;-59
2023/01/31 15:06:56;;;;;;;15.77;9.20;;;;;;;;;;20832872;28;20084;-58
2023/01/31 15:17:04;;;;;;;19.92;11.05;;;;;;;;;;20833095;28;20551;-58
2023/01/31 15:27:10;;;;;;;20.20;9.05;;;;;;;;;;20835077;28;20075;-60
2023/01/31 15:37:24;;;;;;;16.23;9.48;;;;;;;;;;20839215;28;20053;-58
2023/01/31 15:47:26;;;;;;;14.63;6.93;;;;;;;;;;20838257;28;20061;-59
2023/01/31 15:57:31;;;;;;;12.88;6.60;;;;;;;;;;20838529;28;20060;-60
2023/01/31 16:07:33;;;;;;;11.48;5.90;;;;;;;;;;20838290;28;20132;-60
2023/01/31 16:17:35;;;;;;;14.52;6.22;;;;;;;;;;20837422;28;20456;-59
2023/01/31 16:27:38;;;;;;;15.88;7.18;;;;;;;;;;20835700;28;20049;-59
2023/01/31 16:37:42;;;;;;;13.75;6.63;;;;;;;;;;20834620;28;20053;-61
2023/01/31 16:47:46;;;;;;;14.02;7.00;;;;;;;;;;20834518;28;20053;-59
2023/01/31 16:57:48;;;;;;;13.43;6.13;;;;;;;;;;20833346;28;20140;-58
2023/01/31 17:07:52;;;;;;;16.00;8.05;;;;;;;;;;20833807;28;20049;-59
2023/01/31 17:17:55;;;;;;;13.77;6.95;;;;;;;;;;20833211;28;20481;-59
2023/01/31 17:27:58;;;;;;;15.27;8.45;;;;;;;;;;20829517;28;20505;-60
2023/01/31 17:38:00;;;;;;;16.75;7.60;;;;;;;;;;20831736;28;20168;-59
2023/01/31 17:48:03;;;;;;;12.63;6.40;;;;;;;;;;20829947;28;20106;-59
2023/01/31 17:58:05;;;;;;;13.73;6.65;;;;;;;;;;20831135;28;20054;-60
2023/01/31 18:08:07;;;;;;;17.27;7.60;;;;;;;;;;20829511;28;20050;-59
2023/01/31 18:18:09;;;;;;;18.70;8.48;;;;;;;;;;20830233;28;20401;-61
2023/01/31 18:28:11;;;;;;;18.75;8.38;;;;;;;;;;20828989;28;20133;-61
2023/01/31 18:38:13;;;;;;;19.52;9.25;;;;;;;;;;20838651;28;20123;-60
2023/01/31 18:48:15;;;;;;;21.10;8.85;;;;;;;;;;20843592;28;20140;-61
2023/01/31 18:58:17;;;;;;;18.27;8.57;;;;;;;;;;20843537;28;20056;-60
2023/01/31 19:08:19;;;;;;;17.95;8.80;;;;;;;;;;20843197;28;20049;-60
2023/01/31 19:18:21;;;;;;;22.40;10.55;;;;;;;;;;20842533;28;20061;-59
2023/01/31 19:28:24;;;;;;;23.30;10.02;;;;;;;;;;20841711;28;20045;-59
2023/01/31 19:38:26;;;;;;;19.02;9.68;;;;;;;;;;20839557;28;20155;-60
2023/01/31 19:48:28;;;;;;;18.25;8.40;;;;;;;;;;20839897;28;20057;-58
2023/01/31 19:58:31;;;;;;;17.48;7.65;;;;;;;;;;20837526;28;20068;-59
2023/01/31 20:08:33;;;;;;;20.25;8.18;;;;;;;;;;20836581;28;20046;-59
2023/01/31 20:18:36;;;;;;;17.95;9.75;;;;;;;;;;20836243;28;20057;-59
2023/01/31 20:28:38;;;;;;;21.17;8.57;;;;;;;;;;20836735;28;20497;-60
2023/01/31 20:38:40;;;;;;;18.40;8.70;;;;;;;;;;20836059;28;20049;-60
2023/01/31 20:48:42;;;;;;;29.98;13.35;;;;;;;;;;20834494;28;20053;-60
2023/01/31 20:58:46;;;;;;;19.42;9.90;;;;;;;;;;20833931;28;20105;-60
2023/01/31 21:08:48;;;;;;;10.57;6.60;;;;;;;;;;20833942;28;20146;-57
2023/01/31 21:18:50;;;;;;;16.25;8.68;;;;;;;;;;20832031;28;20090;-57
2023/01/31 21:28:52;;;;;;;12.60;6.07;;;;;;;;;;20832980;28;20042;-58
2023/01/31 21:38:54;;;;;;;10.93;6.43;;;;;;;;;;20830003;28;20474;-59
2023/01/31 21:48:56;;;;;;;12.00;6.50;;;;;;;;;;20830319;28;20133;-59
2023/01/31 21:58:58;;;;;;;14.63;6.50;;;;;;;;;;20829902;28;20064;-60
2023/01/31 22:09:01;;;;;;;11.75;6.50;;;;;;;;;;20834866;28;20053;-60
2023/01/31 22:19:04;;;;;;;12.52;6.80;;;;;;;;;;20846571;28;20401;-59
2023/01/31 22:29:07;;;;;;;14.75;6.65;;;;;;;;;;20844937;28;20128;-60
2023/01/31 22:39:11;;;;;;;13.18;7.38;;;;;;;;;;20845653;28;20053;-60
2023/01/31 22:49:13;;;;;;;14.88;7.00;;;;;;;;;;20844257;28;20050;-60
2023/01/31 22:59:15;;;;;;;9.35;6.28;;;;;;;;;;20844164;28;20053;-58
2023/01/31 23:09:17;;;;;;;17.02;7.05;;;;;;;;;;20840175;28;20053;-60
2023/01/31 23:19:21;;;;;;;12.95;6.65;;;;;;;;;;20840917;28;20053;-60
2023/01/31 23:29:23;;;;;;;19.13;8.18;;;;;;;;;;20840141;28;20041;-59
2023/01/31 23:39:25;;;;;;;14.25;8.18;;;;;;;;;;20840922;28;20449;-59
2023/01/31 23:49:27;;;;;;;14.32;7.47;;;;;;;;;;20840080;28;20133;-60
2023/01/31 23:59:30;;;;;;;14.00;6.75;;;;;;;;;;20836475;28;20084;-59
